Time;durP1;ratioP1;P1;durP2;ratioP2;P2;SDS_P1;SDS_P2;PMS_P1;PMS_P2;Temp;Humidity;BMP_temperature;BMP_pressure;BME280_temperature;BME280_humidity;BME280_pressure;Samples;Min_cycle;Max_cycle;Signal;HPM_P1;HPM_P2
2020/12/24 00:01:41;;;;;;;2.28;1.50;;;11.40;87.00;;;;;;4960003;28;20023;-92
2020/12/24 00:04:07;;;;;;;1.60;1.25;;;11.40;87.10;;;;;;4959533;28;20027;-93
2020/12/24 00:06:34;;;;;;;1.80;1.17;;;11.30;87.20;;;;;;4992194;28;20041;-92
2020/12/24 00:08:59;;;;;;;1.88;1.30;;;11.30;87.30;;;;;;5000162;28;20014;-92
2020/12/24 00:11:25;;;;;;;1.33;1.10;;;11.30;87.30;;;;;;4974857;28;20363;-92
2020/12/24 00:13:51;;;;;;;4.57;2.25;;;11.30;87.20;;;;;;4998078;28;20062;-93
2020/12/24 00:16:16;;;;;;;1.58;1.35;;;11.30;87.50;;;;;;4975389;28;20050;-91
2020/12/24 00:18:42;;;;;;;2.85;1.60;;;11.30;87.40;;;;;;4975067;28;20031;-92
2020/12/24 00:21:09;;;;;;;3.35;1.67;;;11.40;87.50;;;;;;4974999;28;20078;-92
2020/12/24 00:23:35;;;;;;;2.85;1.40;;;11.30;87.40;;;;;;4983399;28;20062;-92
2020/12/24 00:26:03;;;;;;;1.77;1.27;;;11.30;88.00;;;;;;4992785;28;20014;-92
2020/12/24 00:28:29;;;;;;;1.40;1.08;;;11.30;87.40;;;;;;4974804;28;20058;-91
2020/12/24 00:30:54;;;;;;;5.38;1.92;;;11.30;87.60;;;;;;4976728;28;20023;-95
2020/12/24 00:33:20;;;;;;;2.28;1.38;;;11.30;87.30;;;;;;4968159;28;20038;-94
2020/12/24 00:35:46;;;;;;;1.67;1.17;;;11.30;87.40;;;;;;4984342;28;20497;-94
2020/12/24 00:38:11;;;;;;;1.48;1.13;;;11.20;87.40;;;;;;4975162;28;20033;-94
2020/12/24 00:40:37;;;;;;;1.50;0.98;;;11.20;87.30;;;;;;4999032;28;20113;-95
2020/12/24 00:43:03;;;;;;;0.93;0.80;;;11.20;87.50;;;;;;4959489;28;20038;-95
2020/12/24 00:45:28;;;;;;;1.27;0.93;;;11.20;87.60;;;;;;5004956;28;20390;-93
2020/12/24 00:47:54;;;;;;;1.05;0.80;;;11.20;88.20;;;;;;4974913;28;20034;-94
2020/12/24 00:50:19;;;;;;;1.67;1.25;;;11.20;88.00;;;;;;4975417;28;20051;-94
2020/12/24 00:52:45;;;;;;;1.92;0.95;;;11.20;87.50;;;;;;4958824;28;20054;-94
2020/12/24 00:55:11;;;;;;;1.45;0.82;;;11.10;87.10;;;;;;4955741;28;20031;-92
2020/12/24 00:57:36;;;;;;;2.45;1.13;;;11.10;87.10;;;;;;4981923;28;20398;-92
2020/12/24 01:00:05;;;;;;;0.77;0.52;;;11.10;88.30;;;;;;4989845;28;20027;-92
2020/12/24 01:02:31;;;;;;;2.20;1.17;;;11.20;87.70;;;;;;4963397;28;20364;-92
2020/12/24 01:04:56;;;;;;;3.40;0.90;;;11.10;87.50;;;;;;4963656;28;20082;-92
2020/12/24 01:07:22;;;;;;;1.58;0.90;;;11.10;87.50;;;;;;4942950;28;20089;-94
2020/12/24 01:09:47;;;;;;;1.77;0.80;;;11.10;87.50;;;;;;4949237;28;20042;-92
2020/12/24 01:12:13;;;;;;;1.02;0.93;;;11.10;87.50;;;;;;4980295;28;20041;-92
2020/12/24 01:14:38;;;;;;;1.15;0.77;;;11.10;88.30;;;;;;4958505;28;20383;-93
2020/12/24 01:17:05;;;;;;;0.65;0.63;;;11.20;87.80;;;;;;4974517;28;20034;-92
2020/12/24 01:19:31;;;;;;;0.88;0.65;;;11.20;87.70;;;;;;4973412;28;20037;-92
2020/12/24 01:21:56;;;;;;;2.15;1.02;;;11.20;88.30;;;;;;4958536;28;20125;-95
2020/12/24 01:24:22;;;;;;;2.58;1.08;;;11.20;87.70;;;;;;4958569;28;20082;-95
2020/12/24 01:26:48;;;;;;;0.75;0.52;;;11.20;87.70;;;;;;4977017;28;20038;-95
2020/12/24 01:29:14;;;;;;;0.73;0.68;;;11.20;87.70;;;;;;4974651;28;20062;-95
2020/12/24 01:31:47;;;;;;;1.20;0.90;;;11.20;87.70;;;;;;4974483;28;20058;-94
2020/12/24 01:34:20;;;;;;;3.65;0.70;;;11.20;87.60;;;;;;4974394;28;20043;-96
2020/12/24 01:36:46;;;;;;;1.25;0.65;;;11.20;87.60;;;;;;4974335;28;20029;-96
2020/12/24 01:39:13;;;;;;;3.92;1.30;;;11.20;87.60;;;;;;4974611;28;20478;-95
2020/12/24 01:41:39;;;;;;;1.67;0.95;;;11.20;87.50;;;;;;4998241;28;20054;-94
2020/12/24 01:44:05;;;;;;;1.20;1.10;;;11.20;87.40;;;;;;4974938;28;20520;-95
2020/12/24 01:46:33;;;;;;;1.95;0.95;;;11.20;87.50;;;;;;4974363;28;20040;-95
2020/12/24 01:48:59;;;;;;;0.98;0.80;;;11.20;88.10;;;;;;4955484;28;20073;-94
2020/12/24 01:51:28;;;;;;;3.50;1.20;;;11.10;87.40;;;;;;4942603;28;20027;-91
2020/12/24 01:53:56;;;;;;;1.25;0.85;;;11.20;87.50;;;;;;4973427;28;20129;-91
2020/12/24 01:56:22;;;;;;;1.20;1.00;;;11.20;87.50;;;;;;4973485;28;20030;-91
2020/12/24 01:58:48;;;;;;;1.40;1.30;;;11.10;87.30;;;;;;4977025;28;20023;-90
2020/12/24 02:01:14;;;;;;;2.88;1.27;;;11.10;87.20;;;;;;4989286;28;20027;-90
2020/12/24 02:03:40;;;;;;;2.45;1.17;;;11.10;87.20;;;;;;4950122;28;20019;-91
2020/12/24 02:06:06;;;;;;;0.70;0.70;;;11.10;87.40;;;;;;4951986;28;20023;-94
2020/12/24 02:08:34;;;;;;;1.40;1.00;;;11.10;87.50;;;;;;4975042;28;20113;-93
2020/12/24 02:11:00;;;;;;;1.05;0.90;;;11.20;87.40;;;;;;4958208;28;20050;-93
2020/12/24 02:13:26;;;;;;;1.45;0.90;;;11.10;87.30;;;;;;4982396;28;20038;-95
2020/12/24 02:15:52;;;;;;;1.70;0.98;;;11.10;87.50;;;;;;4974365;28;20027;-93
2020/12/24 02:18:18;;;;;;;1.40;0.88;;;11.00;87.30;;;;;;4942675;28;20521;-93
2020/12/24 02:20:45;;;;;;;1.75;1.10;;;11.10;87.50;;;;;;4939629;29;20038;-92
2020/12/24 02:23:12;;;;;;;0.90;0.80;;;11.10;87.40;;;;;;4987070;28;20145;-91
2020/12/24 02:25:38;;;;;;;3.63;1.08;;;11.10;87.40;;;;;;4973729;28;20029;-92
2020/12/24 02:28:04;;;;;;;1.08;0.90;;;11.10;87.30;;;;;;4957827;28;20135;-91
2020/12/24 02:30:30;;;;;;;1.67;0.93;;;11.00;87.00;;;;;;5004786;28;20026;-89
2020/12/24 02:32:56;;;;;;;1.40;0.73;;;10.90;86.50;;;;;;4997725;28;20050;-90
2020/12/24 02:35:21;;;;;;;0.95;0.77;;;10.70;85.80;;;;;;4978114;28;20390;-92
2020/12/24 02:37:47;;;;;;;2.55;0.88;;;10.60;86.30;;;;;;4974554;28;20026;-92
2020/12/24 02:40:13;;;;;;;2.20;1.20;;;10.50;86.40;;;;;;4978495;28;20023;-92
2020/12/24 02:42:39;;;;;;;3.28;1.52;;;10.40;86.60;;;;;;4977082;28;20031;-91
2020/12/24 02:45:05;;;;;;;1.05;0.73;;;10.30;86.60;;;;;;4957171;28;20173;-93
2020/12/24 02:47:31;;;;;;;0.75;0.75;;;10.30;86.70;;;;;;4985780;28;20029;-93
2020/12/24 02:49:58;;;;;;;0.70;0.70;;;10.30;86.90;;;;;;4993037;28;20023;-93
2020/12/24 02:52:24;;;;;;;1.65;0.98;;;10.20;87.00;;;;;;4991079;28;20035;-92
2020/12/24 02:54:51;;;;;;;0.90;0.77;;;10.20;87.00;;;;;;4977234;28;20034;-92
2020/12/24 02:57:17;;;;;;;0.95;0.60;;;10.20;87.20;;;;;;4977247;28;20026;-93
2020/12/24 02:59:43;;;;;;;0.98;0.85;;;10.10;87.20;;;;;;4978448;28;20061;-93
2020/12/24 03:02:08;;;;;;;1.38;0.85;;;10.00;86.70;;;;;;5005406;28;20545;-93
2020/12/24 03:04:34;;;;;;;1.67;1.10;;;9.90;86.70;;;;;;4945978;28;20047;-95
2020/12/24 03:07:00;;;;;;;0.40;0.40;;;9.90;87.00;;;;;;4977281;28;20034;-93
2020/12/24 03:09:25;;;;;;;0.90;0.70;;;9.70;86.20;;;;;;4977506;28;20023;-93
2020/12/24 03:11:51;;;;;;;0.90;0.77;;;9.50;86.00;;;;;;4961261;28;20031;-93
2020/12/24 03:14:18;;;;;;;0.60;0.60;;;9.40;86.40;;;;;;4985826;28;20129;-93
2020/12/24 03:16:45;;;;;;;1.63;0.70;;;9.30;86.80;;;;;;4992833;28;20058;-94
2020/12/24 03:19:10;;;;;;;0.73;0.55;;;9.30;87.20;;;;;;4945411;28;20082;-94
2020/12/24 03:21:36;;;;;;;0.60;0.60;;;9.30;87.90;;;;;;4961351;28;20039;-94
2020/12/24 03:24:02;;;;;;;0.70;0.70;;;9.30;87.40;;;;;;4962344;28;20022;-94
2020/12/24 03:26:27;;;;;;;1.80;0.98;;;9.30;88.20;;;;;;4987033;28;20031;-94
2020/12/24 03:28:53;;;;;;;0.35;0.35;;;9.30;87.60;;;;;;4991826;28;20510;-94
2020/12/24 03:31:22;;;;;;;1.85;1.05;;;9.30;87.70;;;;;;4950510;28;20030;-93
2020/12/24 03:33:48;;;;;;;2.30;0.80;;;9.40;87.80;;;;;;4982000;28;20041;-94
2020/12/24 03:36:14;;;;;;;0.82;0.70;;;9.40;87.70;;;;;;4981744;28;20031;-93
2020/12/24 03:38:39;;;;;;;0.60;0.60;;;9.40;87.70;;;;;;4956176;28;20070;-93
2020/12/24 03:41:05;;;;;;;1.25;0.85;;;9.40;87.60;;;;;;4964658;28;20019;-95
2020/12/24 03:43:31;;;;;;;0.68;0.60;;;9.40;87.50;;;;;;4995229;28;20394;-93
2020/12/24 03:45:56;;;;;;;2.10;0.75;;;9.50;87.60;;;;;;4961984;28;20023;-93
2020/12/24 03:48:22;;;;;;;1.65;0.65;;;9.40;87.60;;;;;;4960110;28;20478;-94
2020/12/24 03:50:48;;;;;;;1.35;0.80;;;9.50;87.70;;;;;;4984772;28;20045;-93
2020/12/24 03:53:13;;;;;;;1.13;0.90;;;9.40;87.60;;;;;;4973094;28;20043;-93
2020/12/24 03:55:39;;;;;;;1.50;0.63;;;9.40;87.60;;;;;;4985272;28;20026;-94
2020/12/24 03:58:05;;;;;;;1.33;0.82;;;9.40;87.40;;;;;;4960660;28;20058;-95
2020/12/24 04:00:32;;;;;;;0.80;0.80;;;9.40;87.40;;;;;;4960572;28;20023;-96
2020/12/24 04:02:57;;;;;;;0.63;0.60;;;9.30;87.20;;;;;;4976814;28;20053;-95
2020/12/24 04:05:23;;;;;;;0.50;0.50;;;9.30;87.20;;;;;;4992299;28;20470;-95
2020/12/24 04:07:49;;;;;;;2.50;0.85;;;9.30;87.30;;;;;;4954727;28;20034;-93
2020/12/24 04:10:16;;;;;;;0.68;0.68;;;9.20;87.30;;;;;;4991966;28;20445;-93
2020/12/24 04:12:41;;;;;;;0.77;0.77;;;9.20;87.40;;;;;;4959664;28;20479;-93
2020/12/24 04:15:07;;;;;;;1.17;0.60;;;9.20;87.40;;;;;;4959699;28;20037;-92
2020/12/24 04:17:34;;;;;;;1.27;0.57;;;9.20;87.50;;;;;;4960000;28;20030;-93
2020/12/24 04:19:59;;;;;;;1.30;0.60;;;9.20;87.50;;;;;;4976031;28;20050;-92
2020/12/24 04:22:25;;;;;;;1.75;0.60;;;9.20;87.40;;;;;;4976930;28;20058;-92
2020/12/24 04:24:51;;;;;;;1.08;0.70;;;9.20;87.40;;;;;;4979497;28;20121;-92
2020/12/24 04:27:17;;;;;;;1.40;0.70;;;9.10;87.20;;;;;;4975445;28;20081;-89
2020/12/24 04:29:43;;;;;;;0.50;0.50;;;9.10;87.40;;;;;;5016663;28;20023;-92
2020/12/24 04:32:09;;;;;;;2.00;0.80;;;9.20;87.50;;;;;;4960439;28;20391;-93
2020/12/24 04:34:35;;;;;;;0.60;0.60;;;9.10;87.40;;;;;;4976208;28;20050;-93
2020/12/24 04:37:00;;;;;;;1.88;0.73;;;9.10;87.40;;;;;;4975655;28;20039;-93
2020/12/24 04:39:27;;;;;;;1.17;0.60;;;9.10;87.30;;;;;;4980878;28;20034;-94
2020/12/24 04:41:53;;;;;;;0.63;0.63;;;9.20;87.50;;;;;;4944507;28;20023;-92
2020/12/24 04:44:19;;;;;;;0.32;0.32;;;9.10;87.40;;;;;;4982564;28;20027;-91
2020/12/24 04:46:47;;;;;;;0.57;0.57;;;9.10;87.30;;;;;;4977789;28;20505;-91
2020/12/24 04:49:14;;;;;;;1.20;0.63;;;9.10;87.50;;;;;;4975183;28;20073;-92
2020/12/24 04:51:44;;;;;;;1.38;0.70;;;9.10;87.40;;;;;;4974949;28;20019;-91
2020/12/24 04:54:12;;;;;;;0.32;0.32;;;9.10;87.40;;;;;;4975425;28;20061;-90
2020/12/24 04:56:40;;;;;;;0.60;0.60;;;9.10;87.40;;;;;;4975349;28;20105;-90
2020/12/24 04:59:07;;;;;;;0.73;0.73;;;9.20;87.50;;;;;;4964320;28;20031;-92
2020/12/24 05:01:33;;;;;;;1.90;0.75;;;9.20;87.50;;;;;;4993229;28;20038;-94
2020/12/24 05:03:58;;;;;;;0.50;0.50;;;9.20;87.40;;;;;;4998199;28;20030;-92
2020/12/24 05:06:25;;;;;;;8.77;5.80;;;9.20;87.40;;;;;;4958941;28;20062;-92
2020/12/24 05:08:58;;;;;;;4.20;2.03;;;9.20;87.50;;;;;;4974639;28;20423;-92
2020/12/24 05:11:32;;;;;;;1.20;0.70;;;9.10;87.40;;;;;;4974184;28;20038;-89
2020/12/24 05:14:19;;;;;;;0.98;0.60;;;9.10;87.60;;;;;;4988719;28;20554;-91
2020/12/24 05:17:05;;;;;;;0.57;0.57;;;9.20;87.70;;;;;;4974106;28;20030;-90
2020/12/24 05:19:33;;;;;;;0.82;0.55;;;9.20;87.60;;;;;;4974241;28;20025;-91
2020/12/24 05:22:14;;;;;;;0.60;0.60;;;9.20;87.60;;;;;;4973441;28;20086;-91
2020/12/24 05:24:39;;;;;;;0.63;0.63;;;9.20;87.60;;;;;;4973780;28;20502;-90
2020/12/24 05:27:12;;;;;;;0.60;0.55;;;9.20;87.90;;;;;;4973809;28;20096;-90
2020/12/24 05:29:40;;;;;;;1.45;0.82;;;9.20;88.10;;;;;;4966169;28;20383;-91
2020/12/24 05:32:07;;;;;;;2.92;0.93;;;9.30;88.00;;;;;;4973844;28;20070;-91
2020/12/24 05:34:33;;;;;;;4.47;1.92;;;9.30;87.80;;;;;;4974256;28;20026;-91
2020/12/24 05:37:16;;;;;;;2.97;1.30;;;9.20;86.90;;;;;;4947019;28;20110;-91
2020/12/24 05:39:47;;;;;;;1.63;0.75;;;9.10;86.60;;;;;;4976970;28;20037;-96
2020/12/24 05:42:13;;;;;;;2.17;1.00;;;9.00;86.80;;;;;;4979155;28;20042;-95
2020/12/24 05:44:43;;;;;;;0.88;0.88;;;8.90;87.40;;;;;;4978705;28;20501;-96
2020/12/24 05:47:08;;;;;;;3.20;1.38;;;8.90;87.70;;;;;;4961403;28;20027;-96
2020/12/24 05:49:35;;;;;;;0.80;0.75;;;9.00;87.90;;;;;;4962855;28;20038;-96
2020/12/24 05:52:05;;;;;;;4.55;1.45;;;8.90;88.10;;;;;;4980689;28;20082;-96
2020/12/24 05:54:36;;;;;;;1.00;0.90;;;9.00;88.00;;;;;;4981048;28;20039;-96
2020/12/24 05:57:04;;;;;;;1.80;1.25;;;8.90;87.80;;;;;;4978456;28;20742;-96
2020/12/24 05:59:31;;;;;;;2.50;1.10;;;9.10;88.00;;;;;;4959441;28;20043;-94
2020/12/24 06:02:15;;;;;;;1.02;1.00;;;9.00;87.70;;;;;;4974505;28;20081;-95
2020/12/24 06:04:46;;;;;;;1.00;1.00;;;8.90;87.60;;;;;;4990558;28;20142;-95
2020/12/24 06:07:19;;;;;;;1.60;0.80;;;8.90;87.50;;;;;;4990733;28;20616;-94
2020/12/24 06:09:46;;;;;;;1.05;1.02;;;8.80;87.70;;;;;;4974496;28;20022;-94
2020/12/24 06:12:23;;;;;;;4.40;1.70;;;8.90;87.90;;;;;;4974827;28;20023;-93
2020/12/24 06:14:51;;;;;;;4.90;1.30;;;8.90;88.10;;;;;;4978325;28;20047;-91
2020/12/24 06:17:21;;;;;;;1.58;0.98;;;8.90;88.20;;;;;;4977300;28;20019;-89
2020/12/24 06:19:47;;;;;;;2.05;0.98;;;8.90;89.00;;;;;;4976840;28;20038;-87
2020/12/24 06:22:15;;;;;;;0.93;0.80;;;9.00;88.30;;;;;;4990238;28;20046;-89
2020/12/24 06:24:53;;;;;;;0.60;0.60;;;9.00;88.50;;;;;;4976375;28;20030;-86
2020/12/24 06:27:31;;;;;;;1.67;0.85;;;9.00;88.50;;;;;;4992639;28;20038;-85
2020/12/24 06:30:15;;;;;;;2.80;1.20;;;9.00;88.40;;;;;;4993244;28;20169;-89
2020/12/24 06:32:47;;;;;;;0.97;0.80;;;9.00;88.20;;;;;;4999384;28;20089;-89
2020/12/24 06:35:39;;;;;;;1.10;0.70;;;8.90;88.00;;;;;;4976630;28;20500;-89
2020/12/24 06:38:07;;;;;;;2.05;0.98;;;8.90;88.10;;;;;;4978221;28;20069;-88
2020/12/24 06:40:39;;;;;;;0.60;0.60;;;8.90;88.30;;;;;;4977692;28;20442;-90
2020/12/24 06:43:07;;;;;;;2.92;1.10;;;8.90;88.30;;;;;;4976966;28;20023;-88
2020/12/24 06:45:37;;;;;;;0.80;0.77;;;8.90;88.40;;;;;;4967348;28;20141;-88
2020/12/24 06:48:14;;;;;;;4.50;1.10;;;8.90;88.50;;;;;;4976646;28;20043;-88
2020/12/24 06:50:41;;;;;;;1.58;0.63;;;9.00;88.60;;;;;;4987602;28;20023;-88
2020/12/24 06:53:19;;;;;;;2.80;1.02;;;9.00;88.50;;;;;;4966307;28;20065;-88
2020/12/24 06:55:44;;;;;;;0.47;0.47;;;9.00;88.20;;;;;;4996306;28;20422;-88
2020/12/24 06:58:38;;;;;;;0.90;0.80;;;8.90;87.70;;;;;;4977801;28;20022;-89
2020/12/24 07:01:04;;;;;;;2.90;0.98;;;8.80;87.60;;;;;;4989362;28;20031;-88
2020/12/24 07:03:30;;;;;;;1.90;1.00;;;8.70;87.50;;;;;;4976019;28;20027;-89
2020/12/24 07:05:56;;;;;;;0.60;0.60;;;8.60;87.40;;;;;;5001150;28;20034;-91
2020/12/24 07:08:33;;;;;;;0.60;0.60;;;8.50;87.50;;;;;;4974822;28;20031;-89
2020/12/24 07:11:04;;;;;;;1.92;0.82;;;8.50;87.60;;;;;;4992252;28;20026;-88
2020/12/24 07:13:41;;;;;;;0.57;0.57;;;8.40;87.70;;;;;;4968817;28;20035;-84
2020/12/24 07:16:09;;;;;;;2.22;0.60;;;8.40;87.80;;;;;;4976642;28;20023;-86
2020/12/24 07:18:37;;;;;;;0.98;0.60;;;8.30;87.60;;;;;;4975636;28;20027;-87
2020/12/24 07:21:05;;;;;;;1.17;0.73;;;8.30;88.30;;;;;;4982542;28;20113;-87
2020/12/24 07:23:32;;;;;;;5.43;1.85;;;8.20;87.80;;;;;;4979704;28;20066;-87
2020/12/24 07:26:12;;;;;;;1.08;0.60;;;8.20;87.60;;;;;;5012423;28;20019;-87
2020/12/24 07:28:41;;;;;;;0.35;0.35;;;8.10;87.60;;;;;;4975768;28;20154;-85
2020/12/24 07:31:09;;;;;;;0.75;0.73;;;8.10;87.70;;;;;;4972116;28;20382;-86
2020/12/24 07:33:43;;;;;;;1.52;0.80;;;8.00;87.70;;;;;;4978084;28;20372;-86
2020/12/24 07:36:08;;;;;;;0.80;0.60;;;8.00;87.80;;;;;;4983932;28;20038;-86
2020/12/24 07:38:34;;;;;;;0.95;0.70;;;8.00;87.80;;;;;;4973916;28;20038;-86
2020/12/24 07:40:59;;;;;;;0.60;0.60;;;8.00;87.90;;;;;;4991421;28;20121;-88
2020/12/24 07:43:25;;;;;;;0.98;0.68;;;8.00;88.20;;;;;;4974709;28;20042;-86
2020/12/24 07:45:51;;;;;;;2.95;1.20;;;8.10;88.40;;;;;;4973259;28;20033;-87
2020/12/24 07:48:21;;;;;;;1.80;1.10;;;8.10;88.30;;;;;;4946837;28;20035;-86
2020/12/24 07:50:49;;;;;;;2.67;1.25;;;8.10;88.50;;;;;;4980838;28;20027;-86
2020/12/24 07:53:19;;;;;;;2.10;1.20;;;8.20;88.70;;;;;;4958791;28;20387;-86
2020/12/24 07:55:46;;;;;;;1.17;1.00;;;8.20;88.90;;;;;;4974912;28;20023;-86
2020/12/24 07:58:13;;;;;;;1.42;0.90;;;8.30;89.00;;;;;;5005135;28;20129;-86
2020/12/24 08:00:46;;;;;;;2.03;1.08;;;8.40;89.10;;;;;;4957815;28;20027;-86
2020/12/24 08:03:17;;;;;;;1.02;0.98;;;8.50;89.10;;;;;;4974825;28;20031;-85
2020/12/24 08:05:43;;;;;;;4.03;1.17;;;8.50;88.70;;;;;;4987783;28;20051;-85
2020/12/24 08:08:10;;;;;;;0.77;0.77;;;8.50;89.20;;;;;;4987948;28;20039;-85
2020/12/24 08:10:41;;;;;;;1.70;0.77;;;8.50;88.50;;;;;;4997182;28;20023;-85
2020/12/24 08:13:07;;;;;;;2.40;0.98;;;8.50;88.50;;;;;;4974277;28;20081;-87
2020/12/24 08:15:37;;;;;;;1.58;0.85;;;8.50;88.30;;;;;;4991087;28;20041;-87
2020/12/24 08:18:07;;;;;;;5.35;1.77;;;8.50;88.40;;;;;;4974908;28;20485;-86
2020/12/24 08:20:57;;;;;;;1.00;1.00;;;8.50;88.50;;;;;;4991558;28;20073;-87
2020/12/24 08:23:38;;;;;;;1.75;1.10;;;8.50;88.30;;;;;;4975980;28;20039;-88
2020/12/24 08:26:06;;;;;;;1.13;0.65;;;8.40;88.30;;;;;;4974906;28;20490;-87
2020/12/24 08:28:33;;;;;;;1.85;0.98;;;8.50;88.50;;;;;;4990957;28;20109;-86
2020/12/24 08:30:59;;;;;;;4.70;1.42;;;8.50;88.80;;;;;;4973946;28;20478;-87
2020/12/24 08:33:25;;;;;;;0.85;0.82;;;8.50;88.80;;;;;;4974986;28;20118;-85
2020/12/24 08:35:51;;;;;;;1.50;1.02;;;8.60;89.10;;;;;;4971202;28;20039;-87
2020/12/24 08:38:18;;;;;;;1.27;1.10;;;8.70;89.00;;;;;;5006172;28;20029;-86
2020/12/24 08:40:44;;;;;;;0.43;0.43;;;8.60;88.50;;;;;;4973623;28;20114;-87
2020/12/24 08:43:11;;;;;;;3.22;1.33;;;8.60;88.50;;;;;;4974431;28;20383;-86
2020/12/24 08:45:44;;;;;;;2.70;1.15;;;8.70;88.80;;;;;;4997749;28;20447;-87
2020/12/24 08:48:33;;;;;;;2.95;1.30;;;8.70;89.10;;;;;;4975786;28;20058;-88
2020/12/24 08:50:59;;;;;;;2.88;1.30;;;8.80;89.00;;;;;;4975970;28;20041;-89
2020/12/24 08:53:28;;;;;;;2.33;1.23;;;8.80;88.90;;;;;;4975959;28;20189;-88
2020/12/24 08:55:54;;;;;;;3.30;1.40;;;8.80;89.30;;;;;;4950393;28;20034;-88
2020/12/24 08:58:20;;;;;;;2.30;0.88;;;9.00;89.40;;;;;;4975028;28;20031;-89
2020/12/24 09:00:46;;;;;;;2.90;1.20;;;9.10;89.70;;;;;;4975914;28;20030;-87
2020/12/24 09:03:27;;;;;;;1.80;1.00;;;9.20;89.80;;;;;;4974111;28;20037;-88
2020/12/24 09:05:53;;;;;;;2.78;1.20;;;9.40;89.70;;;;;;4975051;28;20033;-90
2020/12/24 09:08:28;;;;;;;3.03;1.35;;;9.40;89.50;;;;;;4959600;28;20050;-90
2020/12/24 09:10:54;;;;;;;4.13;1.25;;;9.50;89.70;;;;;;4959836;28;20036;-88
2020/12/24 09:13:20;;;;;;;4.00;1.17;;;9.50;89.80;;;;;;4974922;28;20379;-90
2020/12/24 09:15:46;;;;;;;3.28;1.33;;;9.70;89.80;;;;;;4977590;28;20035;-90
2020/12/24 09:18:12;;;;;;;2.78;1.48;;;9.70;89.30;;;;;;4997499;28;20037;-89
2020/12/24 09:20:38;;;;;;;1.95;1.23;;;9.80;89.30;;;;;;4962681;28;20537;-88
2020/12/24 09:23:16;;;;;;;3.45;1.40;;;9.80;89.40;;;;;;4979810;28;20495;-89
2020/12/24 09:25:46;;;;;;;1.85;1.23;;;10.00;90.20;;;;;;4979715;28;20049;-90
2020/12/24 09:28:19;;;;;;;7.03;1.13;;;10.20;90.00;;;;;;4960816;28;20027;-90
2020/12/24 09:30:45;;;;;;;3.60;1.30;;;10.40;90.00;;;;;;4978187;28;20534;-92
2020/12/24 09:33:11;;;;;;;3.38;1.20;;;10.40;89.40;;;;;;4957630;28;20107;-92
2020/12/24 09:35:36;;;;;;;4.55;1.38;;;10.40;88.90;;;;;;4955001;28;20086;-87
2020/12/24 09:38:02;;;;;;;1.30;0.95;;;10.40;88.60;;;;;;4973058;28;20426;-88
2020/12/24 09:40:28;;;;;;;10.90;4.18;;;10.40;88.80;;;;;;4974327;28;20043;-87
2020/12/24 09:42:53;;;;;;;5.07;2.00;;;10.30;88.50;;;;;;4980342;28;20121;-88
2020/12/24 09:45:19;;;;;;;4.35;1.30;;;10.30;88.40;;;;;;4941620;28;20395;-88
2020/12/24 09:47:46;;;;;;;3.60;1.55;;;10.30;88.70;;;;;;4956429;28;20142;-86
2020/12/24 09:50:12;;;;;;;2.00;1.27;;;10.30;89.00;;;;;;4973120;28;20023;-88
2020/12/24 09:52:40;;;;;;;3.30;1.25;;;10.40;88.40;;;;;;4972840;28;20035;-89
2020/12/24 09:55:05;;;;;;;1.50;1.08;;;10.30;88.00;;;;;;4956842;28;20023;-88
2020/12/24 09:57:36;;;;;;;5.00;1.55;;;10.30;87.80;;;;;;4972969;28;20049;-87
2020/12/24 10:00:08;;;;;;;0.68;0.68;;;10.20;87.70;;;;;;4973077;28;20022;-87
2020/12/24 10:02:33;;;;;;;1.50;1.17;;;10.00;87.10;;;;;;4972354;28;20029;-87
2020/12/24 10:04:59;;;;;;;3.95;1.48;;;9.70;86.30;;;;;;4999920;28;20054;-87
2020/12/24 10:07:25;;;;;;;7.20;1.90;;;9.60;86.40;;;;;;4961667;28;20085;-87
2020/12/24 10:09:52;;;;;;;3.80;1.55;;;9.50;87.20;;;;;;4994666;28;20030;-87
2020/12/24 10:12:26;;;;;;;1.35;1.20;;;9.40;87.40;;;;;;4988574;28;20117;-87
2020/12/24 10:14:53;;;;;;;2.95;1.45;;;9.30;87.50;;;;;;4969696;28;20110;-88
2020/12/24 10:17:19;;;;;;;2.97;1.42;;;9.30;87.90;;;;;;4974177;28;20019;-87
2020/12/24 10:19:45;;;;;;;11.35;4.32;;;9.40;88.00;;;;;;4972332;28;20074;-87
2020/12/24 10:22:12;;;;;;;3.53;1.60;;;9.40;88.30;;;;;;4972656;28;20133;-87
2020/12/24 10:24:40;;;;;;;4.75;1.45;;;9.30;87.90;;;;;;4994267;28;20118;-88
2020/12/24 10:27:09;;;;;;;2.03;1.10;;;9.30;87.90;;;;;;4989067;28;20475;-89
2020/12/24 10:29:35;;;;;;;4.45;1.60;;;9.40;88.80;;;;;;4956258;28;20034;-89
2020/12/24 10:32:00;;;;;;;1.60;1.00;;;9.50;88.90;;;;;;4972378;28;20031;-88
2020/12/24 10:34:26;;;;;;;1.60;1.08;;;9.50;88.70;;;;;;4972486;28;20491;-87
2020/12/24 10:36:52;;;;;;;4.45;1.75;;;9.50;88.70;;;;;;4996201;28;20034;-87
2020/12/24 10:39:18;;;;;;;1.10;0.90;;;9.50;87.90;;;;;;4972372;28;20479;-87
2020/12/24 10:41:48;;;;;;;2.47;1.30;;;9.50;88.20;;;;;;4973512;28;20033;-88
2020/12/24 10:44:14;;;;;;;3.88;1.50;;;9.40;87.90;;;;;;4972622;28;20089;-87
2020/12/24 10:46:40;;;;;;;1.48;1.25;;;9.40;87.90;;;;;;4972201;28;20031;-87
2020/12/24 10:49:06;;;;;;;16.98;7.90;;;9.30;88.30;;;;;;4993231;28;20023;-86
2020/12/24 10:51:31;;;;;;;4.40;1.80;;;9.30;88.20;;;;;;4972329;28;20033;-86
2020/12/24 10:53:57;;;;;;;2.53;1.42;;;9.20;88.10;;;;;;4992181;28;20030;-86
2020/12/24 10:56:22;;;;;;;1.35;0.95;;;9.30;88.30;;;;;;4979905;28;20034;-89
2020/12/24 10:58:49;;;;;;;2.53;1.15;;;9.20;87.90;;;;;;4957765;28;20031;-87
2020/12/24 11:01:16;;;;;;;4.72;1.77;;;9.20;88.10;;;;;;4982746;28;20125;-87
2020/12/24 11:03:42;;;;;;;1.77;0.90;;;9.20;88.40;;;;;;4960320;28;20035;-88
2020/12/24 11:06:19;;;;;;;4.43;1.27;;;9.20;88.20;;;;;;4976360;28;20023;-87
2020/12/24 11:08:45;;;;;;;2.25;1.00;;;9.20;88.40;;;;;;4976543;28;20027;-88
2020/12/24 11:11:11;;;;;;;0.60;0.60;;;9.20;88.20;;;;;;4975318;28;20059;-87
2020/12/24 11:13:37;;;;;;;2.33;1.33;;;9.20;88.30;;;;;;4983262;28;20509;-89
2020/12/24 11:16:03;;;;;;;2.45;1.42;;;9.20;88.00;;;;;;4959648;28;20042;-88
2020/12/24 11:18:28;;;;;;;1.60;0.77;;;9.10;87.60;;;;;;4959544;28;20117;-88
2020/12/24 11:20:56;;;;;;;2.25;1.30;;;9.10;88.00;;;;;;4993858;28;20109;-88
2020/12/24 11:23:21;;;;;;;2.10;1.25;;;9.00;88.10;;;;;;4982448;28;20038;-88
2020/12/24 11:25:47;;;;;;;1.33;0.93;;;9.10;88.60;;;;;;4993391;28;20031;-88
2020/12/24 11:28:13;;;;;;;2.03;1.05;;;9.10;88.00;;;;;;4960500;28;20062;-88
2020/12/24 11:30:38;;;;;;;1.75;0.93;;;9.00;87.50;;;;;;4983953;28;20169;-88
2020/12/24 11:33:04;;;;;;;1.70;1.20;;;8.90;87.30;;;;;;4979478;28;20402;-87
2020/12/24 11:35:29;;;;;;;1.77;1.00;;;8.80;87.20;;;;;;4978894;28;20050;-88
2020/12/24 11:37:55;;;;;;;2.95;1.23;;;8.80;87.60;;;;;;4991281;28;20027;-87
2020/12/24 11:40:22;;;;;;;0.90;0.90;;;8.70;87.50;;;;;;4998781;28;20037;-88
2020/12/24 11:42:47;;;;;;;2.92;1.00;;;8.70;87.80;;;;;;4959516;28;20117;-88
2020/12/24 11:45:14;;;;;;;7.63;2.13;;;8.70;87.90;;;;;;4976668;28;20043;-89
2020/12/24 11:47:39;;;;;;;4.35;1.50;;;8.70;88.10;;;;;;4974800;28;20478;-88
2020/12/24 11:50:06;;;;;;;3.78;1.25;;;8.80;88.30;;;;;;4976064;28;20069;-88
2020/12/24 11:52:36;;;;;;;1.50;0.98;;;8.80;88.20;;;;;;4976590;28;20022;-87
2020/12/24 11:55:04;;;;;;;6.75;1.80;;;8.80;88.10;;;;;;4977273;28;20054;-88
2020/12/24 11:57:31;;;;;;;1.40;1.10;;;8.80;88.30;;;;;;4975301;28;20015;-88
2020/12/24 11:59:57;;;;;;;6.43;1.95;;;8.90;88.80;;;;;;4959104;28;20546;-88
2020/12/24 12:02:23;;;;;;;4.28;1.92;;;9.00;88.40;;;;;;5000028;28;20030;-88
2020/12/24 12:04:49;;;;;;;5.80;2.17;;;8.90;87.80;;;;;;4975361;28;20106;-88
2020/12/24 12:07:15;;;;;;;11.07;2.60;;;8.90;87.70;;;;;;4981046;28;20375;-88
2020/12/24 12:09:40;;;;;;;4.38;1.95;;;8.80;87.90;;;;;;4958980;28;20041;-88
2020/12/24 12:12:06;;;;;;;1.73;1.15;;;8.90;88.20;;;;;;4996819;28;20031;-88
2020/12/24 12:14:32;;;;;;;5.00;1.63;;;8.90;88.00;;;;;;4959169;28;20125;-88
2020/12/24 12:16:57;;;;;;;6.97;1.33;;;8.90;88.00;;;;;;4995281;28;20019;-88
2020/12/24 12:19:23;;;;;;;3.35;1.63;;;8.80;87.70;;;;;;4958711;28;20394;-88
2020/12/24 12:21:49;;;;;;;1.88;1.27;;;8.80;87.40;;;;;;4975584;28;20035;-88
2020/12/24 12:24:15;;;;;;;2.60;1.40;;;8.70;87.40;;;;;;5005241;28;20022;-88
2020/12/24 12:26:41;;;;;;;3.63;1.42;;;8.70;87.50;;;;;;4942491;28;20031;-89
2020/12/24 12:29:09;;;;;;;3.33;1.63;;;8.80;88.00;;;;;;4974274;28;20058;-86
2020/12/24 12:31:35;;;;;;;3.47;1.35;;;8.80;88.00;;;;;;4988838;28;20090;-87
2020/12/24 12:34:01;;;;;;;43.55;20.33;;;8.90;88.60;;;;;;4979269;28;20046;-82
2020/12/24 12:36:27;;;;;;;3.78;2.03;;;9.00;88.60;;;;;;4991602;28;20053;-87
2020/12/24 12:38:52;;;;;;;1.58;1.05;;;9.00;88.30;;;;;;5001313;28;20112;-87
2020/12/24 12:41:20;;;;;;;1.92;0.98;;;9.00;87.80;;;;;;4975856;28;20023;-87
2020/12/24 12:43:46;;;;;;;3.63;1.50;;;9.00;88.00;;;;;;4974166;28;20087;-88
2020/12/24 12:46:19;;;;;;;0.88;0.82;;;9.00;88.40;;;;;;4964171;28;20023;-88
2020/12/24 12:48:45;;;;;;;0.75;0.75;;;9.00;88.10;;;;;;4978768;28;20027;-87
2020/12/24 12:51:11;;;;;;;0.70;0.70;;;9.00;87.50;;;;;;4976879;28;20026;-90
2020/12/24 12:53:36;;;;;;;3.10;1.42;;;8.90;87.30;;;;;;4973187;28;20533;-86
2020/12/24 12:56:02;;;;;;;1.25;0.85;;;8.90;88.10;;;;;;4994227;28;20027;-87